Time;durP1;ratioP1;P1;durP2;ratioP2;P2;SDS_P1;SDS_P2;PMS_P1;PMS_P2;Temp;Humidity;BMP_temperature;BMP_pressure;BME280_temperature;BME280_humidity;BME280_pressure;Samples;Min_cycle;Max_cycle;Signal;HPM_P1;HPM_P2
2023/03/18 00:01:17;;;;;;;13.65;9.95;;;12.00;67.40;;;;;;6214328;23;20011;-82
2023/03/18 00:03:44;;;;;;;14.43;9.73;;;12.00;67.40;;;;;;6215345;23;20411;-81
2023/03/18 00:06:17;;;;;;;14.68;9.35;;;12.00;67.40;;;;;;6214510;23;20005;-82
2023/03/18 00:08:44;;;;;;;14.65;9.00;;;12.00;67.50;;;;;;6213473;23;20004;-82
2023/03/18 00:11:12;;;;;;;12.88;9.32;;;12.00;67.50;;;;;;6189092;23;20058;-82
2023/03/18 00:13:40;;;;;;;11.75;9.02;;;12.00;67.60;;;;;;6187961;23;20473;-81
2023/03/18 00:16:09;;;;;;;12.65;9.25;;;12.00;67.70;;;;;;6214662;23;20029;-81
2023/03/18 00:18:34;;;;;;;12.43;8.85;;;11.90;67.80;;;;;;6185597;23;20334;-81
2023/03/18 00:21:00;;;;;;;15.40;9.15;;;12.00;67.80;;;;;;6214115;23;20001;-80
2023/03/18 00:23:27;;;;;;;13.57;9.55;;;12.00;67.40;;;;;;6215787;23;20036;-81
2023/03/18 00:25:55;;;;;;;13.23;9.35;;;12.00;67.90;;;;;;6215305;23;20004;-80
2023/03/18 00:28:22;;;;;;;15.65;10.15;;;12.00;68.10;;;;;;6215513;23;20478;-81
2023/03/18 00:30:48;;;;;;;13.23;9.65;;;12.00;68.10;;;;;;6188124;23;20001;-80
2023/03/18 00:33:15;;;;;;;12.18;8.63;;;12.00;67.90;;;;;;6188336;23;20007;-79
2023/03/18 00:35:41;;;;;;;15.20;9.50;;;12.00;67.80;;;;;;6215389;23;20028;-80
2023/03/18 00:38:08;;;;;;;12.13;8.85;;;12.00;67.80;;;;;;6214870;23;20538;-80
2023/03/18 00:40:52;;;;;;;14.02;10.00;;;12.00;68.10;;;;;;6215894;23;20015;-80
2023/03/18 00:43:21;;;;;;;12.40;8.73;;;12.00;68.20;;;;;;6214809;23;20012;-80
2023/03/18 00:45:49;;;;;;;12.35;8.98;;;12.00;68.30;;;;;;6215288;23;20055;-80
2023/03/18 00:48:15;;;;;;;17.13;9.55;;;11.90;68.20;;;;;;6215713;23;20047;-80
2023/03/18 00:50:42;;;;;;;14.35;9.65;;;11.90;68.30;;;;;;6215674;23;20070;-80
2023/03/18 00:53:08;;;;;;;14.93;10.02;;;11.90;68.40;;;;;;6215485;23;20043;-80
2023/03/18 00:55:34;;;;;;;13.15;8.93;;;12.00;68.40;;;;;;6214456;23;20009;-80
2023/03/18 00:57:59;;;;;;;14.93;9.85;;;12.00;68.30;;;;;;6215348;23;20008;-81
2023/03/18 01:00:26;;;;;;;14.52;9.38;;;12.00;68.20;;;;;;6215707;23;20000;-80
2023/03/18 01:02:52;;;;;;;15.15;10.07;;;12.00;68.30;;;;;;6215093;23;20008;-80
2023/03/18 01:05:18;;;;;;;15.15;9.23;;;12.00;68.30;;;;;;6215266;23;20009;-80
2023/03/18 01:07:44;;;;;;;14.05;9.88;;;11.90;68.20;;;;;;6215213;23;20001;-80
2023/03/18 01:10:13;;;;;;;13.48;9.65;;;11.90;68.20;;;;;;6214917;23;20354;-81
2023/03/18 01:12:40;;;;;;;14.20;9.80;;;11.90;68.30;;;;;;6215123;23;20001;-81
2023/03/18 01:15:11;;;;;;;13.40;9.20;;;11.90;68.30;;;;;;6215709;23;20001;-81
2023/03/18 01:17:37;;;;;;;11.15;8.65;;;11.90;68.30;;;;;;6215065;23;20004;-81
2023/03/18 01:20:03;;;;;;;16.73;9.32;;;11.80;68.20;;;;;;6215499;23;19997;-80
2023/03/18 01:22:29;;;;;;;14.88;8.90;;;11.80;68.30;;;;;;6215493;23;20029;-81
2023/03/18 01:24:56;;;;;;;12.63;9.10;;;11.90;68.50;;;;;;6215585;23;20479;-81
2023/03/18 01:27:23;;;;;;;15.73;9.90;;;11.80;68.40;;;;;;6216044;23;20008;-81
2023/03/18 01:29:49;;;;;;;12.98;9.38;;;11.90;68.20;;;;;;6215405;23;20000;-81
2023/03/18 01:32:15;;;;;;;12.90;8.82;;;11.90;68.10;;;;;;6214992;23;20001;-81
2023/03/18 01:34:40;;;;;;;11.45;8.75;;;11.90;68.00;;;;;;6215299;23;20292;-82
2023/03/18 01:37:06;;;;;;;12.95;8.57;;;11.90;68.00;;;;;;6188442;23;20092;-81
2023/03/18 01:39:33;;;;;;;12.93;8.93;;;11.90;68.00;;;;;;6215757;23;20028;-82
2023/03/18 01:41:59;;;;;;;12.85;9.25;;;11.80;68.10;;;;;;6215072;23;20043;-81
2023/03/18 01:44:26;;;;;;;12.38;9.57;;;11.80;68.20;;;;;;6215627;23;20005;-81
2023/03/18 01:46:53;;;;;;;11.52;8.68;;;11.80;68.20;;;;;;6214900;23;20386;-81
2023/03/18 01:49:51;;;;;;;14.38;9.07;;;11.80;68.30;;;;;;6214020;23;20001;-82
2023/03/18 01:52:25;;;;;;;13.15;9.15;;;11.70;68.40;;;;;;6182629;23;20004;-82
2023/03/18 01:54:59;;;;;;;13.93;9.40;;;11.70;68.10;;;;;;6214725;23;20446;-82
2023/03/18 01:57:26;;;;;;;14.23;9.02;;;11.80;68.10;;;;;;6214341;23;20008;-82
2023/03/18 01:59:54;;;;;;;13.80;8.57;;;11.70;68.00;;;;;;6216423;23;20016;-82
2023/03/18 02:02:20;;;;;;;14.93;9.35;;;11.70;67.90;;;;;;6215942;23;20019;-82
2023/03/18 02:04:51;;;;;;;11.85;8.48;;;11.70;67.90;;;;;;6216030;23;20442;-82
2023/03/18 02:07:17;;;;;;;12.80;8.90;;;11.70;68.00;;;;;;6214238;23;20085;-81
2023/03/18 02:09:45;;;;;;;13.15;9.18;;;11.70;68.10;;;;;;6215149;23;20051;-81
2023/03/18 02:12:13;;;;;;;14.35;9.57;;;11.60;68.10;;;;;;6214261;23;19997;-81
2023/03/18 02:14:39;;;;;;;12.88;8.63;;;11.60;68.00;;;;;;6215376;23;20399;-81
2023/03/18 02:17:12;;;;;;;11.73;8.63;;;11.60;67.90;;;;;;6214247;23;20382;-80
2023/03/18 02:19:47;;;;;;;12.55;8.63;;;11.60;67.90;;;;;;6214452;23;20000;-81
2023/03/18 02:22:33;;;;;;;12.93;9.13;;;11.60;67.90;;;;;;6187778;23;20036;-80
2023/03/18 02:25:17;;;;;;;13.73;8.57;;;11.60;68.10;;;;;;6214672;23;20362;-80
2023/03/18 02:27:47;;;;;;;14.27;8.82;;;11.50;68.20;;;;;;6214959;23;20092;-80
2023/03/18 02:30:27;;;;;;;12.73;8.97;;;11.60;68.20;;;;;;6188184;23;20336;-81
2023/03/18 02:32:55;;;;;;;;;;;11.50;68.20;;;;;;6215256;23;20407;-81
2023/03/18 02:35:21;;;;;;;12.10;8.25;;;11.50;68.20;;;;;;6214644;23;19899;-81
2023/03/18 02:37:46;;;;;;;11.70;8.48;;;11.50;68.20;;;;;;6214243;23;19997;-82
2023/03/18 02:40:33;;;;;;;12.90;8.40;;;11.40;67.80;;;;;;6213890;23;20007;-81
2023/03/18 02:43:30;;;;;;;11.38;8.57;;;11.50;68.20;;;;;;6214359;23;20292;-81
2023/03/18 02:46:13;;;;;;;11.63;8.70;;;11.50;68.20;;;;;;6158473;23;20008;-81
2023/03/18 02:48:42;;;;;;;13.27;9.15;;;11.40;68.10;;;;;;6214723;23;19997;-81
2023/03/18 02:51:10;;;;;;;13.02;8.70;;;11.50;68.10;;;;;;6187835;23;20383;-81
2023/03/18 02:53:37;;;;;;;12.13;8.20;;;11.40;68.20;;;;;;6213798;23;20028;-81
2023/03/18 02:56:04;;;;;;;13.48;9.00;;;11.40;68.30;;;;;;6213698;23;20024;-80
2023/03/18 02:58:30;;;;;;;13.13;8.27;;;11.30;68.40;;;;;;6213993;23;20476;-81
2023/03/18 03:00:56;;;;;;;13.48;8.77;;;;;;;;;;6214247;23;20084;-81
2023/03/18 03:03:22;;;;;;;14.93;8.50;;;11.30;68.10;;;;;;6213956;23;20083;-80
2023/03/18 03:05:48;;;;;;;14.50;9.70;;;11.30;68.40;;;;;;6213535;23;20040;-80
2023/03/18 03:08:14;;;;;;;13.10;8.55;;;11.30;68.40;;;;;;6214384;23;20308;-81
2023/03/18 03:10:40;;;;;;;12.40;8.90;;;11.20;68.50;;;;;;6213968;23;20083;-81
2023/03/18 03:13:08;;;;;;;11.93;8.07;;;11.20;68.60;;;;;;6213893;23;20076;-81
2023/03/18 03:15:35;;;;;;;13.40;9.18;;;11.20;68.30;;;;;;6214507;23;20000;-81
2023/03/18 03:18:02;;;;;;;14.93;9.38;;;11.20;68.50;;;;;;6214318;23;20071;-81
2023/03/18 03:20:32;;;;;;;13.75;8.32;;;11.20;68.30;;;;;;6216941;23;20292;-81
2023/03/18 03:22:58;;;;;;;11.88;8.32;;;11.20;68.20;;;;;;6216419;23;20001;-81
2023/03/18 03:25:26;;;;;;;13.13;8.88;;;11.20;68.10;;;;;;6216610;23;20032;-81
2023/03/18 03:27:52;;;;;;;13.23;8.70;;;11.20;68.10;;;;;;6217266;23;20446;-81
2023/03/18 03:30:18;;;;;;;13.07;8.82;;;11.20;68.10;;;;;;6216880;23;20080;-81
2023/03/18 03:32:44;;;;;;;13.77;8.63;;;11.20;68.70;;;;;;6216049;23;20000;-81
2023/03/18 03:35:16;;;;;;;13.55;8.73;;;11.20;68.20;;;;;;6216504;23;20004;-81
2023/03/18 03:37:42;;;;;;;11.13;7.68;;;11.20;68.30;;;;;;6217174;23;20005;-81
2023/03/18 03:40:14;;;;;;;10.77;8.10;;;11.30;67.70;;;;;;6190085;23;20050;-81
2023/03/18 03:42:40;;;;;;;13.95;7.60;;;11.20;68.00;;;;;;6189741;23;20027;-81
2023/03/18 03:45:07;;;;;;;9.77;7.18;;;11.20;68.00;;;;;;6215792;23;20423;-81
2023/03/18 03:47:33;;;;;;;10.85;7.68;;;11.20;68.00;;;;;;6216511;23;20399;-80
2023/03/18 03:49:59;;;;;;;12.20;7.82;;;11.10;67.80;;;;;;6216718;23;19997;-80
2023/03/18 03:52:25;;;;;;;13.55;8.25;;;11.10;67.90;;;;;;6215827;23;20084;-80
2023/03/18 03:54:52;;;;;;;11.40;6.47;;;11.10;68.00;;;;;;6216025;23;20008;-81
2023/03/18 03:57:18;;;;;;;9.35;7.35;;;11.20;68.00;;;;;;6215939;23;20123;-80
2023/03/18 03:59:44;;;;;;;11.82;7.72;;;11.10;68.00;;;;;;6216311;23;20415;-80
2023/03/18 04:02:10;;;;;;;10.50;7.53;;;11.10;68.10;;;;;;6214604;23;20004;-80
2023/03/18 04:04:37;;;;;;;13.65;8.43;;;11.10;68.20;;;;;;6216108;23;20007;-79
2023/03/18 04:07:02;;;;;;;12.45;8.15;;;11.10;68.30;;;;;;6215631;23;20084;-80
2023/03/18 04:09:29;;;;;;;11.73;8.05;;;11.10;68.30;;;;;;6216046;23;20020;-79
2023/03/18 04:11:55;;;;;;;13.35;7.75;;;11.10;68.40;;;;;;6215824;23;20028;-80
2023/03/18 04:14:20;;;;;;;10.73;7.65;;;11.10;68.10;;;;;;6216028;23;20327;-79
2023/03/18 04:16:46;;;;;;;14.30;8.25;;;11.10;68.50;;;;;;6215428;23;20004;-80
2023/03/18 04:19:12;;;;;;;12.82;7.43;;;11.00;68.50;;;;;;6216074;23;20004;-80
2023/03/18 04:21:37;;;;;;;14.02;8.38;;;11.10;68.60;;;;;;6215239;23;20012;-80
2023/03/18 04:24:04;;;;;;;14.20;8.65;;;11.00;68.60;;;;;;6188793;23;20004;-80
2023/03/18 04:26:32;;;;;;;13.30;8.52;;;11.00;68.80;;;;;;6214856;23;20080;-80
2023/03/18 04:28:58;;;;;;;12.25;8.02;;;11.00;68.80;;;;;;6189789;23;20071;-80
2023/03/18 04:31:24;;;;;;;11.77;8.25;;;11.00;68.90;;;;;;6188211;23;20000;-80
2023/03/18 04:33:49;;;;;;;14.35;8.57;;;10.90;68.90;;;;;;6214146;23;20031;-80
2023/03/18 04:36:15;;;;;;;14.95;9.02;;;10.90;69.00;;;;;;6215273;23;20008;-80
2023/03/18 04:38:41;;;;;;;12.02;8.23;;;10.90;69.10;;;;;;6215547;23;20032;-80
2023/03/18 04:41:07;;;;;;;11.40;8.10;;;10.80;69.00;;;;;;6214719;23;20012;-80
2023/03/18 04:43:33;;;;;;;13.00;9.00;;;10.90;69.10;;;;;;6215991;23;20016;-80
2023/03/18 04:46:00;;;;;;;14.50;8.25;;;10.90;69.30;;;;;;6215830;23;20311;-80
2023/03/18 04:48:27;;;;;;;12.43;8.30;;;10.80;69.40;;;;;;6216565;23;20008;-80
2023/03/18 04:50:53;;;;;;;16.80;8.90;;;10.90;69.60;;;;;;6215030;23;20000;-80
2023/03/18 04:53:19;;;;;;;13.35;9.15;;;10.80;69.40;;;;;;6215977;23;20005;-80
2023/03/18 04:55:45;;;;;;;14.50;8.77;;;10.90;69.50;;;;;;6188455;23;20071;-80
2023/03/18 04:58:11;;;;;;;12.18;8.07;;;10.80;69.50;;;;;;6215762;23;20402;-80
2023/03/18 05:00:37;;;;;;;12.57;8.60;;;10.80;69.50;;;;;;6215113;23;20012;-80
2023/03/18 05:03:03;;;;;;;14.20;8.63;;;10.80;69.50;;;;;;6215431;23;20012;-80
2023/03/18 05:05:28;;;;;;;12.65;8.95;;;10.80;69.70;;;;;;6214948;23;20316;-80
2023/03/18 05:07:54;;;;;;;14.60;9.05;;;10.80;69.80;;;;;;6188950;23;20024;-80
2023/03/18 05:10:20;;;;;;;12.80;8.75;;;10.70;69.70;;;;;;6215195;23;19996;-80
2023/03/18 05:12:45;;;;;;;15.45;8.57;;;10.70;69.80;;;;;;6188101;23;20481;-80
2023/03/18 05:15:13;;;;;;;14.00;8.18;;;10.60;69.80;;;;;;6215286;23;20005;-79
2023/03/18 05:17:39;;;;;;;12.30;8.32;;;10.60;70.00;;;;;;6188803;23;20324;-80
2023/03/18 05:20:06;;;;;;;14.60;9.10;;;10.60;70.20;;;;;;6215762;23;20012;-84
2023/03/18 05:22:31;;;;;;;14.13;8.43;;;10.60;70.30;;;;;;6215031;23;20024;-83
2023/03/18 05:24:57;;;;;;;14.43;8.85;;;10.60;69.90;;;;;;6215883;23;20004;-82
2023/03/18 05:27:23;;;;;;;11.27;8.18;;;10.60;70.00;;;;;;6189265;23;20008;-82
2023/03/18 05:29:49;;;;;;;13.45;8.43;;;10.60;70.00;;;;;;6216052;23;20028;-82
2023/03/18 05:32:15;;;;;;;15.50;9.15;;;10.50;70.10;;;;;;6215378;23;20000;-82
2023/03/18 05:34:42;;;;;;;14.50;8.93;;;10.60;70.60;;;;;;6215273;23;20000;-82
2023/03/18 05:37:09;;;;;;;15.07;8.88;;;10.50;70.80;;;;;;6215102;23;20004;-82
2023/03/18 05:39:35;;;;;;;16.13;8.88;;;10.50;70.50;;;;;;6215474;23;20004;-83
2023/03/18 05:42:03;;;;;;;14.27;8.60;;;10.50;71.00;;;;;;6213546;23;20020;-83
2023/03/18 05:44:29;;;;;;;11.80;8.60;;;10.50;71.20;;;;;;6215395;23;20019;-83
2023/03/18 05:46:55;;;;;;;12.65;9.07;;;10.50;70.90;;;;;;6213386;23;20365;-85
2023/03/18 05:49:22;;;;;;;12.13;8.52;;;10.50;71.30;;;;;;6213071;23;20000;-86
2023/03/18 05:51:49;;;;;;;18.92;8.60;;;10.50;71.30;;;;;;6213620;23;20084;-83
2023/03/18 05:54:16;;;;;;;12.15;8.93;;;10.50;70.70;;;;;;6214068;23;20404;-81
2023/03/18 05:56:44;;;;;;;15.00;8.55;;;10.60;71.10;;;;;;6213271;23;20004;-79
2023/03/18 05:59:11;;;;;;;13.65;9.20;;;10.60;71.20;;;;;;6213758;23;20067;-80
2023/03/18 06:01:37;;;;;;;11.43;8.55;;;10.50;71.20;;;;;;6214219;23;20004;-80
2023/03/18 06:04:05;;;;;;;11.30;8.13;;;10.60;71.40;;;;;;6187832;23;20350;-80
2023/03/18 06:06:31;;;;;;;14.25;8.55;;;10.50;71.50;;;;;;6213951;23;20024;-80
2023/03/18 06:08:57;;;;;;;17.88;8.68;;;10.50;71.40;;;;;;6213561;23;19997;-80
2023/03/18 06:11:23;;;;;;;14.40;8.95;;;10.50;71.40;;;;;;6212818;23;20027;-79
2023/03/18 06:13:49;;;;;;;13.35;8.48;;;10.60;71.40;;;;;;6214454;23;20005;-78
2023/03/18 06:30:05;;;;;;;11.75;8.55;;;11.30;69.30;;;;;;6169273;22;1299933;-79
2023/03/18 06:32:32;;;;;;;11.85;8.85;;;11.30;69.40;;;;;;6223708;23;20008;-80
2023/03/18 06:34:58;;;;;;;13.13;8.38;;;11.30;69.00;;;;;;6198463;23;20012;-80
2023/03/18 06:37:25;;;;;;;14.30;8.20;;;11.30;68.80;;;;;;6223212;23;20012;-80
2023/03/18 06:39:51;;;;;;;11.23;7.82;;;11.30;68.50;;;;;;6223696;23;20074;-80
2023/03/18 06:42:16;;;;;;;11.60;7.40;;;11.20;67.80;;;;;;6222411;23;20314;-80
2023/03/18 06:44:49;;;;;;;11.60;8.07;;;11.10;68.30;;;;;;6222994;23;20007;-82
2023/03/18 06:47:18;;;;;;;12.15;8.45;;;11.10;68.30;;;;;;6223235;23;20007;-80
2023/03/18 06:49:45;;;;;;;13.35;8.77;;;11.10;68.40;;;;;;6222888;23;20028;-81
2023/03/18 06:52:12;;;;;;;13.25;8.82;;;11.10;68.40;;;;;;6222689;23;20432;-82
2023/03/18 06:54:38;;;;;;;10.57;8.20;;;11.10;68.20;;;;;;6222113;23;20003;-82
2023/03/18 06:57:05;;;;;;;10.82;7.93;;;11.00;68.40;;;;;;6222572;23;20001;-82
2023/03/18 06:59:31;;;;;;;13.80;9.43;;;11.00;68.60;;;;;;6223770;23;20091;-81
2023/03/18 07:01:57;;;;;;;13.27;8.75;;;11.10;68.60;;;;;;6223149;23;20078;-81
2023/03/18 07:04:23;;;;;;;12.70;8.23;;;11.20;68.60;;;;;;6222087;23;19997;-81
2023/03/18 07:06:51;;;;;;;13.90;8.20;;;11.20;68.70;;;;;;6222465;23;19996;-89
2023/03/18 07:09:18;;;;;;;15.27;10.15;;;11.30;68.70;;;;;;6221641;23;20011;-83
2023/03/18 07:11:45;;;;;;;17.08;8.80;;;11.40;68.90;;;;;;6222992;23;20027;-83
2023/03/18 07:14:13;;;;;;;12.13;9.30;;;11.30;68.90;;;;;;6222971;23;20005;-82
2023/03/18 07:16:39;;;;;;;15.88;8.75;;;11.40;69.20;;;;;;6223259;23;20004;-84
2023/03/18 07:19:06;;;;;;;18.95;9.38;;;11.50;69.00;;;;;;6223654;23;20001;-87
2023/03/18 07:21:32;;;;;;;13.23;8.63;;;11.60;68.90;;;;;;6223532;23;20430;-83
2023/03/18 07:23:58;;;;;;;12.02;8.43;;;11.80;68.60;;;;;;6221977;23;20465;-82
2023/03/18 07:26:24;;;;;;;13.25;8.50;;;11.90;68.30;;;;;;6223324;23;20001;-82
2023/03/18 07:28:50;;;;;;;13.05;7.47;;;12.10;67.90;;;;;;6223232;23;20012;-82
2023/03/18 07:31:16;;;;;;;13.35;7.75;;;12.40;66.70;;;;;;6189752;23;20087;-82
2023/03/18 07:33:42;;;;;;;13.50;8.10;;;12.40;67.10;;;;;;6190311;23;20039;-82
2023/03/18 07:36:08;;;;;;;10.60;6.72;;;12.60;66.70;;;;;;6216263;23;20005;-81
2023/03/18 07:38:33;;;;;;;12.45;7.07;;;12.70;66.00;;;;;;6216303;23;20012;-81
2023/03/18 07:40:59;;;;;;;10.57;7.60;;;12.90;65.00;;;;;;6215917;23;20000;-81
2023/03/18 07:43:25;;;;;;;13.00;7.82;;;13.00;64.60;;;;;;6216933;23;20007;-81
2023/03/18 07:45:51;;;;;;;11.55;6.97;;;13.00;63.40;;;;;;6216957;23;20008;-84
2023/03/18 07:48:16;;;;;;;11.10;6.68;;;13.00;63.60;;;;;;6217061;23;20000;-84
2023/03/18 07:50:42;;;;;;;10.60;6.03;;;13.10;64.30;;;;;;6190397;23;20004;-84
2023/03/18 07:53:08;;;;;;;9.07;5.90;;;13.30;64.60;;;;;;6216205;23;20004;-85
2023/03/18 07:55:34;;;;;;;8.57;5.68;;;13.40;64.00;;;;;;6216648;23;20008;-84
2023/03/18 07:58:00;;;;;;;9.93;5.75;;;13.60;62.20;;;;;;6216422;23;20008;-81
2023/03/18 08:00:26;;;;;;;8.15;5.78;;;13.60;62.10;;;;;;6215231;23;20001;-82
2023/03/18 08:02:52;;;;;;;7.72;5.40;;;13.70;62.50;;;;;;6215850;23;20059;-82
2023/03/18 08:05:18;;;;;;;11.85;6.57;;;13.80;62.40;;;;;;6216215;23;20001;-82
2023/03/18 08:07:44;;;;;;;10.60;6.35;;;13.90;62.00;;;;;;6216863;23;20001;-87
2023/03/18 08:10:11;;;;;;;7.88;5.88;;;14.00;61.70;;;;;;6215997;23;20007;-87
2023/03/18 08:12:37;;;;;;;12.13;6.20;;;14.30;61.00;;;;;;6214520;23;20015;-84
2023/03/18 08:15:03;;;;;;;7.63;4.57;;;14.30;61.60;;;;;;6209134;23;20008;-83
2023/03/18 08:17:29;;;;;;;7.78;2.90;;;14.40;61.10;;;;;;6187137;23;20005;-83
2023/03/18 08:19:55;;;;;;;6.00;4.00;;;14.40;59.40;;;;;;6186106;23;20029;-83
2023/03/18 08:22:22;;;;;;;6.10;3.38;;;14.40;59.70;;;;;;6212485;23;20044;-86
2023/03/18 08:24:49;;;;;;;4.47;3.20;;;14.50;59.50;;;;;;6215582;23;20076;-83
2023/03/18 08:27:14;;;;;;;5.90;3.28;;;14.60;60.20;;;;;;6215334;23;20449;-83
2023/03/18 08:29:40;;;;;;;4.80;3.50;;;14.70;60.70;;;;;;6214625;23;20067;-83
2023/03/18 08:32:06;;;;;;;7.10;4.20;;;;;;;;;;6216543;23;19997;-83
2023/03/18 08:34:32;;;;;;;8.07;3.95;;;15.00;57.60;;;;;;6217095;23;20080;-82
2023/03/18 08:36:58;;;;;;;8.40;3.35;;;15.00;57.50;;;;;;6216680;23;20350;-82
2023/03/18 08:39:25;;;;;;;6.85;3.53;;;15.00;57.90;;;;;;6216123;23;20001;-82
2023/03/18 08:41:51;;;;;;;8.88;3.30;;;15.00;57.40;;;;;;6215795;23;20471;-81
2023/03/18 08:44:17;;;;;;;9.32;3.90;;;15.10;57.80;;;;;;6216964;23;20012;-82
2023/03/18 08:46:43;;;;;;;9.57;3.55;;;15.10;56.40;;;;;;6216737;23;20349;-82
2023/03/18 08:49:09;;;;;;;12.38;3.95;;;15.20;57.10;;;;;;6216185;23;20004;-81
2023/03/18 08:51:35;;;;;;;7.45;3.53;;;15.30;56.80;;;;;;6216541;23;20449;-83
2023/03/18 08:54:00;;;;;;;6.45;3.20;;;15.50;57.50;;;;;;6215537;23;20318;-84
2023/03/18 08:56:26;;;;;;;11.20;3.38;;;15.70;57.40;;;;;;6211637;23;20004;-84
2023/03/18 08:58:52;;;;;;;9.02;3.75;;;15.80;58.00;;;;;;6214297;23;20067;-85
2023/03/18 09:01:20;;;;;;;8.60;3.67;;;15.90;58.70;;;;;;6214147;23;20054;-85
2023/03/18 09:03:47;;;;;;;7.60;3.67;;;16.00;57.40;;;;;;6215817;23;20001;-83
2023/03/18 09:06:13;;;;;;;7.70;4.00;;;16.00;56.40;;;;;;6187834;23;20000;-84
2023/03/18 09:08:39;;;;;;;5.75;3.40;;;16.00;55.70;;;;;;6215320;23;20084;-82
2023/03/18 09:11:06;;;;;;;7.68;3.55;;;16.00;54.60;;;;;;6215230;23;20036;-81
2023/03/18 09:13:32;;;;;;;7.70;3.40;;;16.00;55.20;;;;;;6188184;23;20107;-82
2023/03/18 09:15:58;;;;;;;4.53;2.90;;;16.00;55.20;;;;;;6214800;23;20311;-81
2023/03/18 09:18:25;;;;;;;6.05;3.17;;;16.00;54.90;;;;;;6214867;23;20005;-81
2023/03/18 09:20:51;;;;;;;6.70;2.92;;;15.90;54.30;;;;;;6210989;23;20071;-82
2023/03/18 09:23:17;;;;;;;5.20;3.00;;;16.00;53.80;;;;;;6215133;23;19996;-81
2023/03/18 09:25:45;;;;;;;4.53;2.35;;;16.10;54.20;;;;;;6211832;23;20024;-83
2023/03/18 09:28:11;;;;;;;8.20;2.60;;;16.10;54.50;;;;;;6209208;23;20526;-83
2023/03/18 09:30:37;;;;;;;5.18;1.88;;;16.20;54.40;;;;;;6213166;23;20090;-84
2023/03/18 09:33:05;;;;;;;3.33;2.08;;;16.30;53.80;;;;;;6213988;23;20024;-83
2023/03/18 09:35:31;;;;;;;9.07;2.75;;;16.30;53.30;;;;;;6215189;23;20354;-83
2023/03/18 09:37:57;;;;;;;4.70;2.45;;;16.40;53.00;;;;;;6213386;23;20025;-82
2023/03/18 09:40:32;;;;;;;4.05;2.03;;;16.40;53.10;;;;;;6214440;23;20438;-83
2023/03/18 09:43:29;;;;;;;2.47;1.80;;;16.40;53.00;;;;;;6215371;23;19996;-87
2023/03/18 09:46:03;;;;;;;5.88;2.25;;;16.60;52.50;;;;;;6214439;23;20054;-89
2023/03/18 09:48:50;;;;;;;5.18;2.20;;;16.70;54.00;;;;;;6213830;23;20085;-86
2023/03/18 09:51:33;;;;;;;4.35;2.45;;;16.90;54.00;;;;;;6188079;23;20008;-86
2023/03/18 09:54:14;;;;;;;2.70;1.92;;;17.00;52.60;;;;;;6214622;23;20000;-87
2023/03/18 09:56:42;;;;;;;4.50;2.30;;;17.10;51.30;;;;;;6213533;23;20076;-86
2023/03/18 09:59:36;;;;;;;3.50;1.88;;;17.10;52.20;;;;;;6215077;23;20009;-86
2023/03/18 10:02:04;;;;;;;8.13;1.98;;;17.20;51.70;;;;;;6214752;23;20011;-87
2023/03/18 10:04:42;;;;;;;3.65;2.30;;;17.30;51.50;;;;;;6215257;23;20000;-87
2023/03/18 10:07:16;;;;;;;3.88;2.30;;;17.40;50.90;;;;;;6214159;23;20001;-87
2023/03/18 10:09:51;;;;;;;4.13;2.25;;;17.60;51.30;;;;;;6188424;23;20009;-87
2023/03/18 10:12:23;;;;;;;1.85;1.45;;;17.80;50.10;;;;;;6215326;23;20394;-87
2023/03/18 10:14:53;;;;;;;4.45;2.15;;;;;;;;;;6215933;23;20117;-87
2023/03/18 10:17:29;;;;;;;4.47;2.65;;;18.00;50.50;;;;;;6214647;23;20430;-87
2023/03/18 10:19:57;;;;;;;4.40;2.08;;;18.10;49.90;;;;;;6188548;23;20008;-86
2023/03/18 10:23:05;;;;;;;4.05;2.13;;;18.20;50.20;;;;;;6212830;23;20087;-87
2023/03/18 10:25:42;;;;;;;4.03;2.28;;;18.30;49.90;;;;;;6215066;23;20080;-86
2023/03/18 10:28:27;;;;;;;3.13;1.75;;;18.40;50.30;;;;;;6215571;23;20011;-85
2023/03/18 10:31:15;;;;;;;3.83;2.75;;;18.50;49.80;;;;;;6213117;23;20080;-86
2023/03/18 10:34:20;;;;;;;3.45;2.22;;;18.60;49.30;;;;;;6186508;23;20015;-83
2023/03/18 10:36:59;;;;;;;3.47;1.83;;;18.60;49.50;;;;;;6214605;23;20024;-86
2023/03/18 10:39:27;;;;;;;5.30;2.10;;;18.50;50.10;;;;;;6226802;23;20076;-86
2023/03/18 10:41:56;;;;;;;4.28;2.55;;;18.60;50.50;;;;;;6215179;23;20001;-82
2023/03/18 10:44:36;;;;;;;5.40;2.55;;;18.60;49.80;;;;;;6215221;23;20031;-82
2023/03/18 10:47:08;;;;;;;2.70;2.33;;;18.90;49.50;;;;;;6214577;23;20125;-85
2023/03/18 10:49:39;;;;;;;3.97;1.98;;;18.80;49.90;;;;;;6214754;23;20029;-80
2023/03/18 10:52:32;;;;;;;4.57;1.95;;;19.00;49.40;;;;;;6214693;23;20008;-88
2023/03/18 10:54:58;;;;;;;4.07;1.95;;;19.10;48.70;;;;;;6215454;23;20146;-85
2023/03/18 10:57:24;;;;;;;2.75;1.85;;;19.20;48.30;;;;;;6215563;23;20004;-87
2023/03/18 10:59:50;;;;;;;6.30;2.08;;;19.30;48.10;;;;;;6215830;23;20007;-86
2023/03/18 11:02:21;;;;;;;5.18;2.03;;;19.40;49.00;;;;;;6215253;23;20356;-87
2023/03/18 11:05:07;;;;;;;4.55;1.90;;;19.50;48.40;;;;;;6215752;23;20063;-87
2023/03/18 11:07:33;;;;;;;2.92;2.03;;;19.50;47.90;;;;;;6216885;23;19996;-88
2023/03/18 11:10:22;;;;;;;3.25;2.00;;;19.60;48.30;;;;;;6189960;23;20007;-87
2023/03/18 11:12:48;;;;;;;2.88;1.92;;;19.70;47.90;;;;;;6217079;23;20023;-86
2023/03/18 11:15:19;;;;;;;4.75;2.28;;;19.80;48.00;;;;;;6215864;23;20315;-84
2023/03/18 11:17:48;;;;;;;2.78;2.17;;;19.80;47.50;;;;;;6216488;23;20131;-78
2023/03/18 11:20:24;;;;;;;3.65;1.95;;;19.90;47.50;;;;;;6216232;23;20139;-79
2023/03/18 11:22:51;;;;;;;4.25;2.03;;;19.80;47.00;;;;;;6214671;23;20028;-78
2023/03/18 11:25:22;;;;;;;4.35;2.35;;;19.70;46.00;;;;;;6209275;23;20079;-79
2023/03/18 11:28:02;;;;;;;3.70;1.67;;;19.50;46.00;;;;;;6209288;23;20011;-80
2023/03/18 11:30:33;;;;;;;2.55;1.63;;;19.70;47.10;;;;;;6208880;23;20532;-79
2023/03/18 11:33:13;;;;;;;2.22;1.70;;;19.80;47.50;;;;;;6214347;23;20001;-79
2023/03/18 11:35:48;;;;;;;3.22;2.08;;;20.10;46.60;;;;;;6216810;23;20012;-78
2023/03/18 11:38:27;;;;;;;3.47;2.08;;;20.40;45.90;;;;;;6216042;23;20007;-78
2023/03/18 11:41:11;;;;;;;4.72;2.25;;;20.60;46.20;;;;;;6215757;23;20375;-78
2023/03/18 11:43:38;;;;;;;3.15;2.17;;;21.00;45.90;;;;;;6216086;23;20136;-78
2023/03/18 11:46:13;;;;;;;2.33;1.70;;;21.90;43.00;;;;;;6215827;23;19996;-78
2023/03/18 11:48:41;;;;;;;5.28;2.05;;;23.20;42.20;;;;;;6216705;23;20005;-78
2023/03/18 11:51:18;;;;;;;2.72;2.10;;;24.40;38.50;;;;;;6216177;23;20000;-79
2023/03/18 11:54:00;;;;;;;5.88;2.63;;;25.50;38.40;;;;;;6216580;23;20430;-79
2023/03/18 11:56:34;;;;;;;2.70;2.05;;;26.60;36.80;;;;;;6215876;23;20008;-79
2023/03/18 11:59:20;;;;;;;3.38;2.60;;;27.50;34.90;;;;;;6216678;23;20015;-80
2023/03/18 12:02:16;;;;;;;6.60;2.25;;;28.30;34.90;;;;;;6189225;23;20005;-81
2023/03/18 12:04:47;;;;;;;3.13;2.30;;;29.00;34.20;;;;;;6177309;23;20046;-80
2023/03/18 12:07:37;;;;;;;3.70;2.17;;;29.40;33.00;;;;;;6215560;23;19996;-80
2023/03/18 12:10:31;;;;;;;5.28;1.85;;;29.80;31.20;;;;;;6190036;23;20351;-80
2023/03/18 12:13:15;;;;;;;4.82;2.10;;;30.00;30.30;;;;;;6216241;23;20012;-80
2023/03/18 12:15:56;;;;;;;2.42;1.70;;;29.90;30.40;;;;;;6216414;23;20047;-79
2023/03/18 12:18:47;;;;;;;3.00;1.77;;;29.70;31.00;;;;;;6216364;23;20036;-79
2023/03/18 12:21:40;;;;;;;4.95;1.75;;;29.70;31.00;;;;;;6215676;23;19997;-82
2023/03/18 12:24:44;;;;;;;1.90;1.40;;;29.60;30.20;;;;;;6215952;23;20043;-79
2023/03/18 12:27:31;;;;;;;2.17;1.35;;;29.40;30.40;;;;;;6209599;23;20004;-80
2023/03/18 12:30:04;;;;;;;2.17;1.13;;;29.20;30.00;;;;;;6163434;23;20067;-83
2023/03/18 12:33:05;;;;;;;3.92;1.10;;;28.90;30.60;;;;;;6184076;23;20036;-82
2023/03/18 12:35:59;;;;;;;3.13;1.13;;;28.80;30.70;;;;;;6161147;23;20305;-82
2023/03/18 12:38:47;;;;;;;4.95;1.00;;;28.80;30.60;;;;;;6158344;23;20012;-83
2023/03/18 12:41:18;;;;;;;2.30;1.10;;;28.80;31.10;;;;;;6184723;23;20072;-82
2023/03/18 12:44:08;;;;;;;2.65;1.17;;;28.80;30.90;;;;;;6185148;23;20048;-83
2023/03/18 12:47:16;;;;;;;1.52;1.20;;;28.90;31.40;;;;;;6186013;23;20004;-83
2023/03/18 12:50:04;;;;;;;0.90;0.80;;;29.00;31.00;;;;;;6153674;23;20051;-80
2023/03/18 12:52:35;;;;;;;3.33;1.10;;;29.20;31.30;;;;;;6185149;23;20389;-83
2023/03/18 12:55:15;;;;;;;0.95;0.90;;;29.30;32.30;;;;;;6192938;23;20020;-83
2023/03/18 12:58:10;;;;;;;4.88;1.10;;;29.40;33.00;;;;;;6191379;23;20020;-83
2023/03/18 13:00:51;;;;;;;1.88;0.88;;;29.50;32.10;;;;;;6192098;23;20746;-83
2023/03/18 13:03:30;;;;;;;4.80;1.05;;;29.50;32.20;;;;;;6189889;23;20013;-82
2023/03/18 13:06:25;;;;;;;4.38;1.15;;;29.50;32.30;;;;;;6184915;23;20031;-83
2023/03/18 13:09:24;;;;;;;2.45;1.30;;;29.60;32.00;;;;;;6183185;23;20343;-83
2023/03/18 13:12:08;;;;;;;2.70;1.47;;;29.60;31.80;;;;;;6181240;23;20012;-83